Time;durP1;ratioP1;P1;durP2;ratioP2;P2;SDS_P1;SDS_P2;PMS_P1;PMS_P2;Temp;Humidity;BMP_temperature;BMP_pressure;BME280_temperature;BME280_humidity;BME280_pressure;Samples;Min_cycle;Max_cycle;Signal;HPM_P1;HPM_P2
2021/11/06 00:02:22;;;;;;;21.80;19.47;;;;;;;9.28;57.38;99097.63;8337141;28;20240;-68
2021/11/06 00:06:25;;;;;;;23.27;20.13;;;;;;;9.20;57.92;99099.53;8318239;28;20229;-68
2021/11/06 00:10:30;;;;;;;23.57;21.07;;;;;;;9.17;57.91;99091.81;8318663;28;20240;-68
2021/11/06 00:14:33;;;;;;;24.47;20.97;;;;;;;9.14;57.99;99100.50;8318799;28;20229;-68
2021/11/06 00:18:36;;;;;;;23.63;21.13;;;;;;;9.13;57.30;99097.94;8318586;28;20247;-68
2021/11/06 00:22:39;;;;;;;25.23;22.07;;;;;;;9.10;57.90;99098.88;8318267;28;20243;-68
2021/11/06 00:26:44;;;;;;;25.77;20.63;;;;;;;9.03;57.40;99106.78;8318142;28;20247;-68
2021/11/06 00:30:46;;;;;;;23.90;21.10;;;;;;;8.97;56.99;99107.75;8318688;28;20228;-68
2021/11/06 00:34:49;;;;;;;22.50;20.13;;;;;;;8.98;56.67;99109.44;8317158;28;20236;-67
2021/11/06 00:38:52;;;;;;;23.10;20.70;;;;;;;8.94;56.46;99110.38;8330698;28;20232;-68
2021/11/06 00:42:56;;;;;;;27.40;22.57;;;;;;;8.89;56.23;99107.03;8350961;28;20518;-67
2021/11/06 00:46:59;;;;;;;24.97;22.30;;;;;;;8.88;56.25;99110.50;8350816;28;20228;-67
2021/11/06 00:51:02;;;;;;;18.33;16.43;;;;;;;8.74;56.22;99109.03;8350800;28;20239;-68
2021/11/06 00:55:06;;;;;;;14.03;12.70;;;;;;;8.75;55.99;99115.03;8350081;28;20236;-67
2021/11/06 00:59:10;;;;;;;15.63;13.37;;;;;;;8.68;55.86;99116.03;8350331;28;20232;-67
2021/11/06 01:03:13;;;;;;;29.37;16.20;;;;;;;8.65;56.79;99111.78;8349910;28;20430;-67
2021/11/06 01:07:17;;;;;;;15.20;12.77;;;;;;;8.57;56.16;99113.66;8349400;28;20236;-68
2021/11/06 01:11:20;;;;;;;13.37;11.97;;;;;;;8.47;56.52;99114.69;8349621;28;20238;-68
2021/11/06 01:15:26;;;;;;;17.63;12.73;;;;;;;8.46;55.93;99115.56;8349446;28;20235;-68
2021/11/06 01:19:29;;;;;;;16.47;14.10;;;;;;;8.27;56.19;99110.69;8349047;28;20228;-67
2021/11/06 01:23:33;;;;;;;13.93;12.53;;;;;;;8.39;55.81;99115.63;8349183;28;20228;-68
2021/11/06 01:27:36;;;;;;;13.30;11.90;;;;;;;8.35;55.50;99113.13;8349069;28;20244;-67
2021/11/06 01:31:40;;;;;;;13.37;12.07;;;;;;;8.22;55.53;99109.91;8349180;28;20236;-66
2021/11/06 01:35:43;;;;;;;13.53;12.13;;;;;;;8.26;55.57;99110.69;8348840;28;20240;-67
2021/11/06 01:39:46;;;;;;;13.67;11.93;;;;;;;8.24;55.99;99110.72;8348919;28;20425;-67
2021/11/06 01:43:49;;;;;;;14.10;12.70;;;;;;;8.14;56.21;99110.03;8349666;28;20239;-67
2021/11/06 01:47:53;;;;;;;16.57;14.57;;;;;;;8.30;56.44;99105.47;8349253;28;20236;-67
2021/11/06 01:51:56;;;;;;;18.37;16.23;;;;;;;8.33;56.68;99108.00;8348551;28;20235;-67
2021/11/06 01:56:00;;;;;;;18.43;15.27;;;;;;;8.32;56.55;99108.88;8348675;28;20240;-67
2021/11/06 02:00:05;;;;;;;15.03;13.43;;;;;;;8.31;56.31;99119.22;8348529;28;20531;-67
2021/11/06 02:04:09;;;;;;;15.47;13.97;;;;;;;8.26;56.24;99118.44;8348141;28;20255;-67
2021/11/06 02:08:13;;;;;;;16.33;14.63;;;;;;;8.30;56.00;99112.34;8348351;28;20254;-67
2021/11/06 02:12:16;;;;;;;14.97;13.53;;;;;;;8.26;55.60;99114.13;8348429;28;20228;-67
2021/11/06 02:16:18;;;;;;;13.77;12.37;;;;;;;8.07;55.43;99117.88;8348050;28;20232;-67
2021/11/06 02:20:23;;;;;;;12.67;11.47;;;;;;;8.15;55.86;99105.75;8348305;28;20232;-67
2021/11/06 02:24:28;;;;;;;13.27;12.00;;;;;;;8.14;55.40;99114.34;8347455;28;20322;-67
2021/11/06 02:28:31;;;;;;;14.97;13.37;;;;;;;8.06;55.30;99114.47;8347802;28;20224;-67
2021/11/06 02:32:34;;;;;;;15.30;13.70;;;;;;;7.97;55.14;99110.28;8347450;28;20247;-67
2021/11/06 02:36:37;;;;;;;15.23;13.67;;;;;;;7.95;55.44;99112.03;8347635;28;20235;-67
2021/11/06 02:40:42;;;;;;;15.30;13.80;;;;;;;7.97;55.36;99114.59;8347177;28;20232;-67
2021/11/06 02:44:44;;;;;;;17.33;14.90;;;;;;;7.96;55.05;99118.06;8347399;28;20240;-67
2021/11/06 02:48:47;;;;;;;16.43;14.83;;;;;;;7.92;55.47;99117.28;8347516;28;20228;-67
2021/11/06 02:52:50;;;;;;;16.77;15.03;;;;;;;7.95;55.05;99116.34;8347340;28;20415;-67
2021/11/06 02:56:55;;;;;;;17.07;15.30;;;;;;;7.86;55.14;99111.34;8349985;28;20236;-67
2021/11/06 03:00:58;;;;;;;18.03;16.07;;;;;;;7.78;54.84;99111.44;8353730;28;20239;-67
2021/11/06 03:05:04;;;;;;;17.97;14.10;;;;;;;7.71;55.17;99118.44;8353136;28;20240;-67
2021/11/06 03:09:08;;;;;;;13.50;12.27;;;;;;;7.79;54.60;99128.63;8353571;28;20229;-67
2021/11/06 03:13:12;;;;;;;11.80;10.80;;;;;;;7.77;54.58;99126.09;8353665;28;20537;-67
2021/11/06 03:17:15;;;;;;;10.90;10.00;;;;;;;7.76;54.58;99126.94;8353342;28;20247;-67
2021/11/06 03:21:18;;;;;;;11.13;10.03;;;;;;;7.76;55.02;99128.66;8353081;28;20236;-67
2021/11/06 03:25:21;;;;;;;11.83;10.83;;;;;;;7.73;54.32;99127.00;8353034;28;20255;-67
2021/11/06 03:29:25;;;;;;;10.87;9.97;;;;;;;7.64;54.64;99138.28;8353254;28;20243;-67
2021/11/06 03:33:30;;;;;;;11.53;10.43;;;;;;;7.71;54.64;99141.66;8352098;28;20224;-67
2021/11/06 03:37:34;;;;;;;12.13;11.03;;;;;;;7.67;54.45;99134.81;8352533;28;20235;-68
2021/11/06 03:41:37;;;;;;;13.93;12.27;;;;;;;7.64;54.59;99138.28;8352595;28;20236;-67
2021/11/06 03:45:42;;;;;;;13.77;12.47;;;;;;;7.61;55.07;99133.16;8352715;28;20415;-67
2021/11/06 03:49:45;;;;;;;13.93;12.47;;;;;;;7.72;54.67;99133.03;8352193;28;20424;-67
2021/11/06 03:53:48;;;;;;;13.07;11.87;;;;;;;7.61;54.95;99137.47;8352122;28;20523;-67
2021/11/06 03:57:53;;;;;;;13.37;11.93;;;;;;;7.64;55.03;99137.44;8351912;28;20256;-67
2021/11/06 04:01:57;;;;;;;14.13;12.70;;;;;;;7.56;55.39;99140.13;8351304;28;20554;-67
2021/11/06 04:06:00;;;;;;;12.53;11.37;;;;;;;7.66;55.39;99148.59;8351153;28;20232;-67
2021/11/06 04:10:04;;;;;;;12.60;11.33;;;;;;;7.67;55.42;99145.13;8350209;28;20228;-67
2021/11/06 04:14:07;;;;;;;12.13;10.93;;;;;;;7.77;55.78;99138.13;8351386;28;20232;-67
2021/11/06 04:18:11;;;;;;;14.13;12.73;;;;;;;7.71;55.31;99138.19;8351227;28;20255;-67
2021/11/06 04:22:14;;;;;;;15.00;12.63;;;;;;;7.79;56.10;99128.63;8351141;28;20236;-67
2021/11/06 04:26:17;;;;;;;14.63;13.00;;;;;;;7.74;55.90;99127.84;8350927;28;20418;-67
2021/11/06 04:30:20;;;;;;;14.70;13.20;;;;;;;7.76;56.38;99136.41;8351007;28;20232;-67
2021/11/06 04:34:24;;;;;;;12.03;10.83;;;;;;;7.76;55.44;99139.84;8350784;28;20243;-67
2021/11/06 04:38:27;;;;;;;12.90;11.70;;;;;;;7.74;55.80;99140.75;8342299;28;20231;-67
2021/11/06 04:42:30;;;;;;;13.10;11.90;;;;;;;7.78;55.69;99139.81;8350719;28;20239;-67
2021/11/06 04:46:33;;;;;;;15.60;12.20;;;;;;;7.80;56.03;99141.50;8350635;28;20242;-67
2021/11/06 04:50:37;;;;;;;14.47;12.97;;;;;;;7.79;56.56;99131.22;8350396;28;20244;-67
2021/11/06 04:54:40;;;;;;;15.70;14.10;;;;;;;7.79;56.58;99144.97;8349860;28;20247;-67
2021/11/06 04:58:43;;;;;;;14.47;13.03;;;;;;;7.80;56.52;99148.38;8349974;28;20236;-67
2021/11/06 05:02:46;;;;;;;13.83;12.50;;;;;;;7.73;55.73;99151.91;8350013;28;20232;-67
2021/11/06 05:06:50;;;;;;;12.80;11.57;;;;;;;7.68;55.07;99149.41;8349915;28;20240;-67
2021/11/06 05:10:53;;;;;;;13.30;12.00;;;;;;;7.54;55.29;99156.47;8349918;28;20228;-67
2021/11/06 05:14:56;;;;;;;14.60;12.87;;;;;;;7.55;55.33;99151.28;8349659;28;20228;-66
2021/11/06 05:18:59;;;;;;;15.97;14.27;;;;;;;7.57;55.80;99156.44;8349341;28;20247;-67
2021/11/06 05:23:03;;;;;;;17.50;14.87;;;;;;;7.63;55.58;99164.09;8349569;28;20228;-67
2021/11/06 05:27:07;;;;;;;16.47;14.77;;;;;;;7.46;55.56;99161.72;8349109;28;20236;-67
2021/11/06 05:31:27;;;;;;;20.30;17.73;;;;;;;7.49;56.42;99169.44;8348805;28;20220;-67
2021/11/06 05:35:30;;;;;;;23.20;19.17;;;;;;;7.47;56.53;99163.44;8349222;28;20234;-66
2021/11/06 05:39:34;;;;;;;30.10;21.27;;;;;;;7.52;57.59;99168.53;8348616;28;20235;-67
2021/11/06 05:43:37;;;;;;;27.03;19.77;;;;;;;7.50;56.80;99171.16;8348749;28;20236;-67
2021/11/06 05:47:40;;;;;;;26.30;21.43;;;;;;;7.53;57.32;99175.41;8348637;28;20243;-66
2021/11/06 05:51:43;;;;;;;109.70;24.67;;;;;;;7.35;58.75;99169.59;8348278;28;20232;-67
2021/11/06 05:55:48;;;;;;;38.87;23.80;;;;;;;7.50;58.43;99178.00;8348144;28;20262;-66
2021/11/06 05:59:50;;;;;;;46.70;23.43;;;;;;;7.49;58.05;99177.16;8348250;28;20235;-67
2021/11/06 06:03:54;;;;;;;28.83;22.37;;;;;;;7.54;58.07;99177.09;8347987;28;20228;-67
2021/11/06 06:07:57;;;;;;;36.03;23.83;;;;;;;7.52;58.34;99177.13;8347783;28;20236;-67
2021/11/06 06:12:02;;;;;;;32.87;26.00;;;;;;;7.45;60.59;99180.66;8348122;28;20231;-67
2021/11/06 06:16:05;;;;;;;34.40;23.77;;;;;;;7.51;60.78;99175.41;8347870;28;20239;-67
2021/11/06 06:20:09;;;;;;;36.23;24.67;;;;;;;7.53;61.04;99186.56;8348173;28;20232;-66
2021/11/06 06:24:12;;;;;;;45.13;24.50;;;;;;;7.69;61.20;99187.22;8347867;28;20238;-66
2021/11/06 06:28:16;;;;;;;35.17;24.47;;;;;;;7.80;61.09;99205.97;8348006;28;20527;-66
2021/11/06 06:32:19;;;;;;;40.83;24.50;;;;;;;7.83;60.87;99197.34;8347176;28;20235;-66
2021/11/06 06:36:22;;;;;;;92.20;27.10;;;;;;;7.82;61.47;99206.81;8348059;28;20236;-66
2021/11/06 06:40:25;;;;;;;41.03;23.77;;;;;;;7.88;61.75;99213.63;8347611;28;20224;-66
2021/11/06 06:44:29;;;;;;;49.03;23.70;;;;;;;7.95;61.89;99222.97;8347889;28;20232;-66
2021/11/06 06:48:32;;;;;;;42.83;21.03;;;;;;;7.95;61.22;99224.69;8347744;28;20232;-66
2021/11/06 06:52:35;;;;;;;45.13;20.70;;;;;;;8.02;61.58;99229.75;8347508;28;20335;-66
2021/11/06 06:56:38;;;;;;;41.60;21.23;;;;;;;8.00;61.47;99228.91;8347559;28;20247;-66
2021/11/06 07:00:42;;;;;;;26.23;20.10;;;;;;;8.07;61.01;99239.16;8347662;28;20236;-66
2021/11/06 07:04:45;;;;;;;26.53;19.20;;;;;;;8.07;60.78;99236.56;8346990;28;20267;-66
2021/11/06 07:08:48;;;;;;;23.80;18.70;;;;;;;7.96;60.85;99237.59;8346622;28;20228;-66
2021/11/06 07:12:51;;;;;;;32.53;18.83;;;;;;;8.08;60.50;99241.72;8346611;28;20228;-66
2021/11/06 07:16:55;;;;;;;35.80;18.97;;;;;;;8.11;60.37;99245.97;8346950;28;20236;-66
2021/11/06 07:20:58;;;;;;;43.83;17.90;;;;;;;8.08;60.40;99246.88;8346747;28;20228;-66
2021/11/06 07:25:01;;;;;;;29.40;18.23;;;;;;;8.16;60.36;99247.59;8346741;28;20431;-66
2021/11/06 07:29:04;;;;;;;56.67;18.63;;;;;;;8.22;60.26;99252.72;8346663;28;20306;-66
2021/11/06 07:33:09;;;;;;;23.63;18.27;;;;;;;8.16;61.02;99263.09;8346436;28;20232;-67
2021/11/06 07:37:11;;;;;;;30.47;17.37;;;;;;;8.31;60.43;99256.88;8346471;28;20236;-66
2021/11/06 07:41:14;;;;;;;25.43;17.63;;;;;;;8.26;60.62;99256.06;8346356;28;20641;-67
2021/11/06 07:45:20;;;;;;;30.70;18.73;;;;;;;8.06;61.30;99256.38;8349669;28;20228;-68
2021/11/06 07:49:25;;;;;;;29.87;19.03;;;;;;;8.28;60.92;99256.94;8352118;28;20243;-67
2021/11/06 07:53:28;;;;;;;34.73;18.57;;;;;;;8.41;60.98;99260.16;8344003;28;20225;-67
2021/11/06 07:57:32;;;;;;;73.47;18.00;;;;;;;8.11;60.70;99264.03;8329745;28;20231;-67
2021/11/06 08:01:35;;;;;;;28.93;17.13;;;;;;;8.15;61.81;99260.56;8328002;28;20251;-67
2021/11/06 08:05:39;;;;;;;64.33;18.83;;;;;;;8.38;61.17;99262.81;8344321;28;20251;-66
2021/11/06 08:09:42;;;;;;;67.70;18.00;;;;;;;8.35;60.87;99271.44;8350873;28;20236;-66
2021/11/06 08:13:45;;;;;;;22.37;16.10;;;;;;;8.50;60.93;99272.13;8346747;28;20239;-66
2021/11/06 08:17:49;;;;;;;19.40;16.23;;;;;;;8.67;61.21;99269.28;8350478;28;20231;-67
2021/11/06 08:21:55;;;;;;;19.63;15.73;;;;;;;8.58;60.71;99275.44;8326539;28;20228;-67
2021/11/06 08:25:58;;;;;;;17.13;15.20;;;;;;;8.53;60.55;99266.91;8333163;28;20228;-66
2021/11/06 08:30:01;;;;;;;25.90;16.03;;;;;;;8.67;60.49;99269.28;8322349;28;20232;-66
2021/11/06 08:34:04;;;;;;;18.40;15.60;;;;;;;8.68;60.73;99279.59;8318132;28;20422;-66
2021/11/06 08:38:10;;;;;;;16.20;14.70;;;;;;;8.69;60.23;99275.28;8318022;28;20578;-66
2021/11/06 08:42:13;;;;;;;24.70;15.50;;;;;;;8.71;60.16;99268.34;8333462;28;20233;-67
2021/11/06 08:46:16;;;;;;;26.67;15.73;;;;;;;8.63;60.55;99272.78;8315848;28;20232;-66
2021/11/06 08:50:21;;;;;;;17.33;15.53;;;;;;;8.82;60.16;99279.38;8324483;28;20447;-66
2021/11/06 08:54:26;;;;;;;19.33;16.33;;;;;;;8.77;60.80;99266.50;8333191;28;20454;-66
2021/11/06 08:58:29;;;;;;;34.37;16.27;;;;;;;8.70;60.43;99277.84;8316916;28;20229;-66
2021/11/06 09:02:32;;;;;;;20.07;15.60;;;;;;;8.88;60.76;99279.25;8328718;28;20569;-66
2021/11/06 09:06:38;;;;;;;18.67;16.67;;;;;;;9.02;60.97;99276.44;8349700;28;20232;-66
2021/11/06 09:10:42;;;;;;;20.03;15.77;;;;;;;9.13;60.34;99284.84;8342586;28;20236;-66
2021/11/06 09:14:45;;;;;;;19.80;15.00;;;;;;;9.15;60.17;99282.25;8336198;28;20251;-67
2021/11/06 09:18:48;;;;;;;35.23;16.87;;;;;;;8.94;60.44;99288.63;8348933;28;20231;-66
2021/11/06 09:22:54;;;;;;;30.03;16.77;;;;;;;9.30;59.91;99291.47;8333753;28;20232;-67
2021/11/06 09:26:58;;;;;;;18.93;16.93;;;;;;;9.25;60.45;99301.88;8323377;28;20235;-67
2021/11/06 09:31:01;;;;;;;40.73;16.07;;;;;;;8.96;60.11;99300.66;8318423;28;20240;-67
2021/11/06 09:35:04;;;;;;;21.87;16.13;;;;;;;8.81;61.03;99298.31;8316004;28;20228;-66
2021/11/06 09:39:11;;;;;;;42.77;16.53;;;;;;;8.93;61.08;99298.13;8316016;28;20269;-66
2021/11/06 09:43:16;;;;;;;20.53;16.80;;;;;;;8.72;61.67;99299.31;8316001;28;20233;-67
2021/11/06 09:47:21;;;;;;;22.17;18.63;;;;;;;8.83;61.21;99293.13;8316015;28;20336;-67
2021/11/06 09:51:24;;;;;;;22.60;16.00;;;;;;;8.59;62.47;99290.91;8316074;28;20229;-66
2021/11/06 09:55:27;;;;;;;17.77;15.23;;;;;;;9.06;62.02;99291.00;8315179;28;20239;-66
2021/11/06 09:59:33;;;;;;;17.83;15.93;;;;;;;8.48;63.63;99292.78;8315511;28;20239;-66
2021/11/06 10:03:36;;;;;;;34.40;15.80;;;;;;;8.65;62.89;99292.53;8335671;28;20236;-66
2021/11/06 10:07:39;;;;;;;17.07;15.17;;;;;;;9.06;62.65;99293.59;8347980;28;20243;-66
2021/11/06 10:11:45;;;;;;;27.73;16.80;;;;;;;8.34;64.59;99280.06;8347898;28;20248;-67
2021/11/06 10:15:54;;;;;;;17.20;15.40;;;;;;;9.08;62.81;99270.31;8343604;28;20232;-67
2021/11/06 10:19:57;;;;;;;32.20;15.90;;;;;;;8.76;62.70;99274.31;8318522;28;20236;-67
2021/11/06 10:24:00;;;;;;;21.67;17.77;;;;;;;8.74;64.04;99273.47;8323541;28;20243;-67
2021/11/06 10:28:05;;;;;;;21.67;19.57;;;;;;;9.02;63.59;99271.28;8326228;28;20239;-66
2021/11/06 10:32:10;;;;;;;17.50;15.60;;;;;;;9.16;62.68;99264.13;8347403;28;20228;-67
2021/11/06 10:36:22;;;;;;;18.83;16.63;;;;;;;9.19;62.68;99258.06;8347431;28;20238;-67
2021/11/06 10:40:30;;;;;;;18.10;15.97;;;;;;;9.33;62.20;99261.25;8346602;28;20232;-67
2021/11/06 10:44:33;;;;;;;18.30;16.50;;;;;;;9.52;61.89;99256.59;8345290;28;20224;-67
2021/11/06 10:48:37;;;;;;;17.87;16.07;;;;;;;9.62;61.06;99265.00;8347075;28;20246;-67
2021/11/06 10:52:46;;;;;;;18.23;16.33;;;;;;;9.73;60.78;99259.63;8347351;28;20351;-67
2021/11/06 10:56:55;;;;;;;18.03;16.23;;;;;;;9.86;60.59;99252.44;8347698;28;20228;-67
2021/11/06 11:01:00;;;;;;;19.33;17.30;;;;;;;9.84;60.81;99244.72;8347234;28;20235;-67
2021/11/06 11:05:05;;;;;;;19.90;17.77;;;;;;;9.91;60.23;99241.13;8346935;28;20295;-67
2021/11/06 11:09:11;;;;;;;27.53;18.23;;;;;;;9.94;61.12;99237.63;8346190;28;20434;-67
2021/11/06 11:13:16;;;;;;;20.23;18.17;;;;;;;9.98;60.41;99242.69;8328078;28;20243;-67
2021/11/06 11:17:19;;;;;;;19.70;17.63;;;;;;;9.94;60.51;99235.03;8325924;28;20551;-67
2021/11/06 11:21:26;;;;;;;20.70;18.63;;;;;;;9.88;60.89;99232.56;8320389;28;20243;-67
2021/11/06 11:25:29;;;;;;;18.70;16.90;;;;;;;9.94;60.66;99233.31;8323539;28;20220;-67
2021/11/06 11:29:35;;;;;;;18.00;16.20;;;;;;;10.14;60.30;99232.84;8339740;28;20240;-67
2021/11/06 11:33:39;;;;;;;18.23;16.33;;;;;;;10.26;60.06;99223.97;8335100;28;20235;-67
2021/11/06 11:37:43;;;;;;;19.93;18.00;;;;;;;10.27;60.48;99210.13;8336200;28;20233;-67
2021/11/06 11:42:13;;;;;;;20.20;18.10;;;;;;;10.17;60.64;99217.25;8333332;28;20264;-67
2021/11/06 11:46:17;;;;;;;20.87;18.77;;;;;;;10.33;59.95;99201.41;8337695;28;20232;-68
2021/11/06 11:50:26;;;;;;;19.17;17.17;;;;;;;10.40;59.54;99202.97;8346143;28;20517;-68
2021/11/06 11:54:53;;;;;;;21.50;19.30;;;;;;;10.04;59.75;99202.03;8349458;28;20577;-68
2021/11/06 11:58:57;;;;;;;19.70;17.70;;;;;;;10.35;59.46;99197.88;8349826;28;20235;-68
2021/11/06 12:03:01;;;;;;;18.97;17.13;;;;;;;10.63;59.00;99201.56;8350644;28;20238;-67
2021/11/06 12:07:16;;;;;;;17.50;15.80;;;;;;;10.80;58.21;99198.53;8350592;28;20523;-68
2021/11/06 12:11:26;;;;;;;18.57;16.77;;;;;;;11.11;57.69;99195.97;8348089;28;20228;-67
2021/11/06 12:15:54;;;;;;;17.70;15.90;;;;;;;11.12;57.06;99195.09;8348173;28;20231;-67
2021/11/06 12:19:57;;;;;;;17.93;16.13;;;;;;;11.11;57.68;99189.03;8346445;28;20234;-68
2021/11/06 12:24:20;;;;;;;18.97;17.17;;;;;;;10.76;58.57;99201.19;8350200;28;20262;-67
2021/11/06 12:28:24;;;;;;;18.97;17.07;;;;;;;10.72;58.77;99185.78;8347652;28;20242;-68
2021/11/06 12:32:32;;;;;;;18.27;16.53;;;;;;;10.57;59.36;99184.41;8349739;28;20235;-68
2021/11/06 12:36:42;;;;;;;17.90;16.13;;;;;;;10.87;58.55;99169.84;8347317;28;20231;-68
2021/11/06 12:40:52;;;;;;;19.03;17.03;;;;;;;11.05;58.28;99160.69;8349898;28;20279;-68
2021/11/06 12:44:59;;;;;;;20.03;18.00;;;;;;;11.01;58.25;99156.50;8348592;28;20247;-68
2021/11/06 12:49:04;;;;;;;19.97;17.87;;;;;;;10.82;58.13;99152.72;8344974;28;20232;-68
2021/11/06 12:53:07;;;;;;;18.63;16.83;;;;;;;10.95;57.82;99141.97;8347930;28;20240;-68
2021/11/06 12:57:10;;;;;;;19.33;17.33;;;;;;;10.73;57.30;99138.25;8348525;28;20224;-68
2021/11/06 13:01:19;;;;;;;18.00;16.20;;;;;;;10.83;57.02;99129.31;8348944;28;20239;-68
2021/11/06 13:05:24;;;;;;;17.83;16.00;;;;;;;10.83;57.48;99129.31;8346545;28;20228;-69
2021/11/06 13:09:28;;;;;;;17.93;16.20;;;;;;;10.90;57.22;99127.44;8348506;28;20520;-67
2021/11/06 13:13:32;;;;;;;17.50;15.70;;;;;;;11.20;58.11;99122.28;8348544;28;20224;-67
2021/11/06 13:17:38;;;;;;;17.33;15.63;;;;;;;10.81;57.95;99118.16;8346696;28;20231;-67
2021/11/06 13:21:43;;;;;;;18.03;16.17;;;;;;;10.86;57.82;99115.44;8348342;28;20228;-68
2021/11/06 13:25:47;;;;;;;16.77;15.20;;;;;;;11.26;57.21;99103.97;8348259;28;20429;-68
2021/11/06 13:29:50;;;;;;;17.33;15.57;;;;;;;11.08;57.44;99098.41;8346352;28;20425;-67
2021/11/06 13:33:55;;;;;;;17.73;15.87;;;;;;;11.18;57.15;99096.41;8348200;28;20236;-67
2021/11/06 13:38:32;;;;;;;17.83;15.63;;;;;;;11.09;57.88;99101.84;8348053;28;20224;-66
2021/11/06 13:42:35;;;;;;;16.83;15.13;;;;;;;11.01;57.87;99090.84;8326210;28;20220;-67
2021/11/06 13:46:42;;;;;;;19.03;15.37;;;;;;;10.76;57.98;99083.75;8315800;28;20236;-68
2021/11/06 13:50:46;;;;;;;16.87;15.10;;;;;;;10.80;58.43;99084.53;8315719;28;20236;-67
2021/11/06 13:54:49;;;;;;;19.27;17.27;;;;;;;10.58;58.96;99074.72;8315434;28;20236;-66
2021/11/06 13:58:54;;;;;;;22.93;19.23;;;;;;;10.29;60.06;99078.91;8315287;28;20241;-67
2021/11/06 14:02:58;;;;;;;39.53;32.90;;;;;;;10.66;59.45;99074.50;8330425;28;20232;-67
2021/11/06 14:07:12;;;;;;;22.27;20.07;;;;;;;10.50;59.42;99072.34;8348189;28;20547;-67
2021/11/06 14:11:14;;;;;;;21.03;18.97;;;;;;;10.39;60.47;99074.34;8348059;28;20243;-67
2021/11/06 14:15:27;;;;;;;21.00;18.93;;;;;;;10.40;60.53;99067.47;8348069;28;20237;-66
2021/11/06 14:19:30;;;;;;;19.60;17.70;;;;;;;10.52;59.87;99064.53;8347453;28;20236;-67
2021/11/06 14:23:37;;;;;;;21.27;18.37;;;;;;;10.68;59.77;99052.88;8347575;28;20230;-67
2021/11/06 14:27:40;;;;;;;21.77;19.50;;;;;;;10.83;60.01;99054.16;8348175;28;20514;-67
2021/11/06 14:31:44;;;;;;;24.83;20.70;;;;;;;10.82;60.38;99044.72;8347491;28;20247;-66
2021/11/06 14:35:48;;;;;;;22.43;20.07;;;;;;;10.86;59.98;99045.47;8347535;28;20250;-67
2021/11/06 14:39:56;;;;;;;23.60;21.20;;;;;;;11.08;59.40;99043.97;8347142;28;20232;-67
2021/11/06 14:44:04;;;;;;;22.93;20.57;;;;;;;11.09;59.01;99031.84;8347362;28;20239;-67
2021/11/06 14:48:10;;;;;;;24.70;22.07;;;;;;;11.07;58.98;99031.06;8347146;28;20232;-66
2021/11/06 14:52:14;;;;;;;22.90;20.50;;;;;;;10.96;58.93;99033.94;8348545;28;20546;-66
2021/11/06 14:56:18;;;;;;;24.40;21.80;;;;;;;11.01;59.33;99029.50;8354010;28;20239;-67
2021/11/06 15:00:24;;;;;;;25.90;23.20;;;;;;;10.42;60.15;99021.66;8353847;28;20239;-67
2021/11/06 15:04:40;;;;;;;25.93;22.97;;;;;;;10.77;59.08;99025.84;8353068;28;20231;-67
2021/11/06 15:08:46;;;;;;;26.03;23.30;;;;;;;10.49;60.29;99020.56;8353564;28;20239;-66
2021/11/06 15:12:50;;;;;;;28.30;24.47;;;;;;;10.10;60.95;99020.72;8353574;28;20235;-67
2021/11/06 15:16:53;;;;;;;28.60;25.73;;;;;;;10.39;60.52;99013.97;8353573;28;20394;-67
2021/11/06 15:20:56;;;;;;;37.40;32.80;;;;;;;10.31;60.08;99015.00;8353603;28;20531;-67
2021/11/06 15:24:59;;;;;;;28.87;25.67;;;;;;;10.44;59.67;99018.13;8353091;28;20232;-67
2021/11/06 15:29:04;;;;;;;31.53;28.23;;;;;;;10.38;59.82;99013.13;8353133;28;20232;-67
2021/11/06 15:33:07;;;;;;;28.67;25.67;;;;;;;10.40;60.03;99010.50;8352979;28;20235;-67
2021/11/06 15:37:10;;;;;;;31.63;27.60;;;;;;;10.34;59.80;99017.53;8352633;28;20300;-67
2021/11/06 15:41:14;;;;;;;28.70;25.40;;;;;;;10.28;59.90;99012.50;8352476;28;20235;-67
2021/11/06 15:45:19;;;;;;;26.83;24.00;;;;;;;10.19;60.05;99017.91;8352688;28;20235;-67
2021/11/06 15:49:23;;;;;;;26.93;24.20;;;;;;;10.13;59.54;99018.06;8352696;28;20228;-67
2021/11/06 15:53:26;;;;;;;30.40;27.10;;;;;;;10.06;59.64;99009.59;8352146;28;20254;-67
2021/11/06 15:57:29;;;;;;;40.10;33.73;;;;;;;10.10;59.43;99005.19;8352536;28;20228;-67
2021/11/06 16:01:34;;;;;;;89.40;64.50;;;;;;;9.94;59.80;99005.59;8352600;28;20232;-67
2021/11/06 16:05:37;;;;;;;49.30;40.07;;;;;;;9.96;59.66;99001.22;8351944;28;20581;-67
2021/11/06 16:09:41;;;;;;;53.00;42.97;;;;;;;9.95;59.91;98988.31;8351083;28;20434;-67
2021/11/06 16:13:44;;;;;;;33.30;29.80;;;;;;;9.95;59.54;98986.56;8351699;28;20236;-68
2021/11/06 16:17:55;;;;;;;29.03;25.97;;;;;;;9.93;59.47;98985.75;8350500;28;20250;-69
2021/11/06 16:22:03;;;;;;;27.87;25.00;;;;;;;9.89;59.40;98984.13;8334993;28;20236;-67
2021/11/06 16:26:06;;;;;;;27.23;24.43;;;;;;;9.73;59.92;98990.59;8350980;28;20236;-67
2021/11/06 16:30:11;;;;;;;33.97;26.60;;;;;;;9.52;59.92;98989.34;8351017;28;20239;-67
2021/11/06 16:34:15;;;;;;;27.70;24.63;;;;;;;9.62;59.83;98983.09;8350709;28;20232;-67
2021/11/06 16:38:18;;;;;;;43.27;36.47;;;;;;;9.65;59.52;98989.91;8350982;28;20228;-67
2021/11/06 16:42:23;;;;;;;36.03;32.13;;;;;;;9.65;58.89;98984.75;8350672;28;20565;-68
2021/11/06 16:46:27;;;;;;;31.40;28.00;;;;;;;9.54;59.17;98993.63;8350265;28;20519;-68
2021/11/06 16:50:31;;;;;;;33.57;27.77;;;;;;;9.49;58.64;98998.03;8350308;28;20232;-67
2021/11/06 16:54:35;;;;;;;31.40;27.00;;;;;;;9.51;58.46;99004.03;8350096;28;20243;-68
2021/11/06 16:58:38;;;;;;;29.33;26.23;;;;;;;9.43;58.56;98995.59;8350046;28;20236;-67
2021/11/06 17:02:41;;;;;;;35.67;31.07;;;;;;;9.36;59.17;99001.81;8350050;28;20236;-68
2021/11/06 17:06:46;;;;;;;36.27;32.33;;;;;;;9.38;59.04;98994.84;8335999;28;20248;-68
2021/11/06 17:10:51;;;;;;;39.20;34.40;;;;;;;9.36;59.82;99000.06;8334478;28;20255;-67
2021/11/06 17:14:54;;;;;;;37.40;32.87;;;;;;;9.32;59.56;99000.19;8342232;28;20560;-68
2021/11/06 17:18:59;;;;;;;37.73;33.60;;;;;;;8.91;60.43;98995.03;8340603;28;20231;-68
2021/11/06 17:23:03;;;;;;;38.00;33.87;;;;;;;8.95;60.86;98988.06;8335469;28;20413;-67
2021/11/06 17:27:08;;;;;;;49.20;40.70;;;;;;;9.17;59.85;98981.53;8344469;28;20232;-67
2021/11/06 17:31:11;;;;;;;45.70;37.37;;;;;;;8.79;60.83;98984.94;8347298;28;20232;-68
2021/11/06 17:35:15;;;;;;;45.30;37.60;;;;;;;8.78;61.08;98975.53;8348193;28;20228;-68
2021/11/06 17:39:19;;;;;;;38.13;31.63;;;;;;;8.98;59.97;98975.91;8345607;28;20228;-68
2021/11/06 17:43:22;;;;;;;34.17;30.50;;;;;;;9.00;59.52;98979.34;8348074;28;20228;-68
2021/11/06 17:47:25;;;;;;;33.27;29.37;;;;;;;8.95;59.66;98977.75;8347848;28;20224;-68
2021/11/06 17:51:37;;;;;;;36.57;31.83;;;;;;;8.99;59.53;98982.81;8347394;28;20231;-68
2021/11/06 17:55:42;;;;;;;33.57;29.70;;;;;;;8.37;61.00;98982.31;8342651;28;20515;-68
2021/11/06 17:59:45;;;;;;;32.93;29.43;;;;;;;8.84;60.04;98985.72;8340604;28;20523;-68
2021/11/06 18:03:48;;;;;;;32.57;28.37;;;;;;;8.84;59.80;98980.53;8321902;28;20236;-68
2021/11/06 18:07:51;;;;;;;30.27;27.00;;;;;;;9.22;59.18;98973.69;8346847;28;20228;-68
2021/11/06 18:11:55;;;;;;;32.10;28.83;;;;;;;9.15;58.17;98972.97;8346776;28;20239;-67
2021/11/06 18:16:02;;;;;;;31.30;28.00;;;;;;;8.96;57.86;98976.84;8347234;28;20539;-68
2021/11/06 18:20:07;;;;;;;30.57;27.37;;;;;;;8.93;57.56;98976.91;8347987;28;20423;-67
2021/11/06 18:24:10;;;;;;;34.67;29.80;;;;;;;8.81;57.43;98970.28;8347641;28;20236;-67
2021/11/06 18:28:14;;;;;;;37.27;32.93;;;;;;;8.72;57.62;98971.34;8346831;28;20234;-67
2021/11/06 18:32:17;;;;;;;37.00;32.40;;;;;;;8.74;57.43;98968.72;8347614;28;20417;-67
2021/11/06 18:36:21;;;;;;;37.43;31.87;;;;;;;8.71;57.53;98961.03;8347645;28;20228;-68
2021/11/06 18:40:24;;;;;;;46.07;39.27;;;;;;;8.68;56.98;98961.06;8347469;28;20240;-67
2021/11/06 18:44:28;;;;;;;51.13;43.10;;;;;;;8.55;56.56;98948.44;8347020;28;20515;-67
2021/11/06 18:48:33;;;;;;;47.80;41.33;;;;;;;8.47;56.31;98946.88;8347438;28;20227;-67
2021/11/06 18:52:36;;;;;;;41.70;35.07;;;;;;;8.49;56.19;98945.97;8347243;28;20248;-67
2021/11/06 18:56:39;;;;;;;36.67;32.20;;;;;;;8.34;55.85;98947.09;8347166;28;20247;-67